createdAt,value
2018-07-04T00:01:34.854Z,10.87
2018-07-04T00:04:21.653Z,8.03
2018-07-04T00:07:08.568Z,7.33
2018-07-04T00:09:55.308Z,8.47
2018-07-04T00:12:42.244Z,8.77
2018-07-04T00:15:29.045Z,8.27
2018-07-04T00:18:15.905Z,9.03
2018-07-04T00:21:02.692Z,7.70
2018-07-04T00:23:49.438Z,8.90
2018-07-04T00:26:36.142Z,9.73
2018-07-04T00:29:23.109Z,8.50
2018-07-04T00:32:09.809Z,9.10
2018-07-04T00:34:56.896Z,10.10
2018-07-04T00:37:43.635Z,9.50
2018-07-04T00:40:30.481Z,6.97
2018-07-04T00:43:17.197Z,8.90
2018-07-04T00:46:03.905Z,9.67
2018-07-04T00:48:50.678Z,12.00
2018-07-04T00:51:37.440Z,7.83
2018-07-04T00:54:24.173Z,9.40
2018-07-04T00:57:10.833Z,9.93
2018-07-04T00:59:57.748Z,41.90
2018-07-04T01:02:44.488Z,20.23
2018-07-04T01:05:31.256Z,12.23
2018-07-04T01:08:18.197Z,12.77
2018-07-04T01:11:05.213Z,10.33
2018-07-04T01:13:51.925Z,11.63
2018-07-04T01:16:38.645Z,9.20
2018-07-04T01:19:25.502Z,9.43
2018-07-04T01:22:12.618Z,11.90
2018-07-04T01:24:59.635Z,11.17
2018-07-04T01:27:46.949Z,9.80
2018-07-04T01:30:33.962Z,12.37
2018-07-04T01:33:21.105Z,11.43
2018-07-04T01:36:08.288Z,12.30
2018-07-04T01:38:55.385Z,10.63
2018-07-04T01:41:42.133Z,11.87
2018-07-04T01:44:29.109Z,12.37
2018-07-04T01:47:16.256Z,8.73
2018-07-04T01:50:03.465Z,10.93
2018-07-04T01:52:50.648Z,10.67
2018-07-04T01:55:37.862Z,8.77
2018-07-04T01:58:24.718Z,9.23
2018-07-04T02:01:11.776Z,8.33
2018-07-04T02:03:58.785Z,10.17
2018-07-04T02:06:45.795Z,9.03
2018-07-04T02:09:32.803Z,8.87
2018-07-04T02:12:20.018Z,10.20
2018-07-04T02:15:06.849Z,11.37
2018-07-04T02:17:53.829Z,9.17
2018-07-04T02:20:40.872Z,10.33
2018-07-04T02:23:28.000Z,10.73
2018-07-04T02:26:15.152Z,8.37
2018-07-04T02:29:02.262Z,13.80
2018-07-04T02:31:49.435Z,11.33
2018-07-04T02:34:36.495Z,9.43
2018-07-04T02:37:23.506Z,11.97
2018-07-04T02:40:10.449Z,8.27
2018-07-04T02:42:57.732Z,8.13
2018-07-04T02:45:44.679Z,7.60
2018-07-04T02:48:31.745Z,10.27
2018-07-04T02:51:18.759Z,10.70
2018-07-04T02:54:05.853Z,10.30
2018-07-04T02:56:52.933Z,10.73
2018-07-04T02:59:40.088Z,8.10
2018-07-04T03:02:27.301Z,12.03
2018-07-04T03:05:14.413Z,9.53
2018-07-04T03:08:01.422Z,12.33
2018-07-04T03:10:48.438Z,8.63
2018-07-04T03:13:35.542Z,10.33
2018-07-04T03:16:23.025Z,8.47
2018-07-04T03:19:09.814Z,8.50
2018-07-04T03:21:56.597Z,8.43
2018-07-04T03:24:43.463Z,10.77
2018-07-04T03:27:30.292Z,8.00
2018-07-04T03:30:17.097Z,8.63
2018-07-04T03:33:03.981Z,9.97
2018-07-04T03:35:50.898Z,7.73
2018-07-04T03:38:37.752Z,9.73
2018-07-04T03:41:24.492Z,9.60
2018-07-04T03:44:11.191Z,10.00
2018-07-04T03:46:58.045Z,10.00
2018-07-04T03:49:44.940Z,8.90
2018-07-04T03:52:31.608Z,14.47
2018-07-04T03:55:18.485Z,18.47
2018-07-04T03:58:05.480Z,19.00
2018-07-04T04:00:52.333Z,16.50
2018-07-04T04:03:39.034Z,24.67
2018-07-04T04:06:26.153Z,22.40
2018-07-04T04:09:13.366Z,28.37
2018-07-04T04:12:00.285Z,28.60
2018-07-04T04:14:47.384Z,30.00
2018-07-04T04:17:35.009Z,41.47
2018-07-04T04:20:22.016Z,47.27
2018-07-04T04:23:08.792Z,73.00
2018-07-04T04:25:55.602Z,55.83
2018-07-04T04:28:42.603Z,74.87
2018-07-04T04:31:29.540Z,71.90
2018-07-04T04:34:16.481Z,114.43
2018-07-04T04:37:03.762Z,11.27
2018-07-04T04:39:50.873Z,110.80
2018-07-04T04:42:37.984Z,10.17
2018-07-04T04:45:25.095Z,7.80
2018-07-04T04:48:12.135Z,8.30
2018-07-04T04:50:59.201Z,8.30
2018-07-04T04:53:46.122Z,9.20
2018-07-04T04:56:33.336Z,10.03
2018-07-04T04:59:20.272Z,10.73
2018-07-04T05:02:07.156Z,8.23
2018-07-04T05:04:53.997Z,18.17
2018-07-04T05:07:40.781Z,36.37
2018-07-04T05:10:27.681Z,141.97
2018-07-04T05:13:14.502Z,362.37
2018-07-04T05:16:01.189Z,497.20
2018-07-04T05:18:47.893Z,955.57
2018-07-04T05:21:35.193Z,1010.22
2018-07-04T05:24:22.695Z,858.53
2018-07-04T05:27:10.130Z,1119.13
2018-07-04T05:29:57.584Z,1164.63
2018-07-04T05:32:44.949Z,1832.83
2018-07-04T05:35:32.324Z,927.67
2018-07-04T05:38:19.889Z,1182.33
2018-07-04T05:41:07.445Z,1198.80
2018-07-04T05:43:54.903Z,523.73
2018-07-04T05:46:42.293Z,340.07
2018-07-04T05:49:29.680Z,55.92
2018-07-04T05:52:17.226Z,1151.00
2018-07-04T05:55:04.873Z,1857.10
2018-07-04T05:57:52.519Z,580.92
2018-07-04T06:00:39.870Z,398.15
2018-07-04T06:03:27.060Z,122.33
2018-07-04T06:06:14.195Z,679.60
2018-07-04T06:09:01.462Z,1999.90
2018-07-04T06:11:48.533Z,1625.00
2018-07-04T06:14:35.708Z,1012.23
2018-07-04T06:17:22.662Z,621.23
2018-07-04T06:20:09.937Z,1323.97
2018-07-04T06:22:57.269Z,835.17
2018-07-04T06:25:44.377Z,888.67
2018-07-04T06:28:31.597Z,448.93
2018-07-04T06:31:18.646Z,30.73
2018-07-04T06:34:05.707Z,4.93
2018-07-04T06:36:52.774Z,756.17
2018-07-04T06:39:27.497Z,4.43
2018-07-04T06:41:56.214Z,3.27
2018-07-04T06:44:24.980Z,3.47
2018-07-04T06:46:53.774Z,4.53
2018-07-04T06:49:22.347Z,3.47
2018-07-04T06:51:50.879Z,5.63
2018-07-04T06:54:19.504Z,4.43
2018-07-04T06:56:48.261Z,4.60
2018-07-04T06:59:16.913Z,4.00
2018-07-04T07:01:45.455Z,25.27
2018-07-04T07:04:26.211Z,4.83
2018-07-04T07:07:13.238Z,4.50
2018-07-04T07:10:00.381Z,4.83
2018-07-04T07:12:47.606Z,4.27
2018-07-04T07:15:34.669Z,7.30
2018-07-04T07:18:21.682Z,3.80
2018-07-04T07:21:08.810Z,3.17
2018-07-04T07:23:55.977Z,3.17
2018-07-04T07:26:42.961Z,4.80
2018-07-04T07:29:30.041Z,4.47
2018-07-04T07:32:17.214Z,4.37
2018-07-04T07:35:04.277Z,4.17
2018-07-04T07:37:51.333Z,6.13
2018-07-04T07:40:38.312Z,3.03
2018-07-04T07:43:25.476Z,2.63
2018-07-04T07:46:12.449Z,2.93
2018-07-04T07:48:59.511Z,3.87
2018-07-04T07:51:46.620Z,2.33
2018-07-04T07:54:33.625Z,2.50
2018-07-04T07:57:22.405Z,2.53
2018-07-04T08:00:09.485Z,1.70
2018-07-04T08:02:56.532Z,2.50
2018-07-04T08:05:43.665Z,2.13
2018-07-04T08:08:30.645Z,1.67
2018-07-04T08:11:17.681Z,1.43
2018-07-04T08:14:04.738Z,1.87
2018-07-04T08:16:51.946Z,3.87
2018-07-04T08:19:39.005Z,1.70
2018-07-04T08:22:26.113Z,2.57
2018-07-04T08:25:13.257Z,2.37
2018-07-04T08:28:00.269Z,1.47
2018-07-04T08:30:47.289Z,2.77
2018-07-04T08:33:34.367Z,1.77
2018-07-04T08:36:21.596Z,6.77
2018-07-04T08:39:08.723Z,2.40
2018-07-04T08:41:55.842Z,1.80
2018-07-04T08:44:42.827Z,1.97
2018-07-04T08:47:30.078Z,2.13
2018-07-04T08:50:17.300Z,1.50
2018-07-04T08:53:04.306Z,2.30
2018-07-04T08:55:51.242Z,2.37
2018-07-04T08:58:38.635Z,2.90
2018-07-04T09:01:26.278Z,1.73
2018-07-04T09:04:13.389Z,1.60
2018-07-04T09:07:00.460Z,3.67
2018-07-04T09:09:47.662Z,2.20
2018-07-04T09:12:34.760Z,1.57
2018-07-04T09:15:21.789Z,2.70
2018-07-04T09:18:08.897Z,1.67
2018-07-04T09:20:56.122Z,1.37
2018-07-04T09:23:43.689Z,2.03
2018-07-04T09:26:31.113Z,3.07
2018-07-04T09:29:18.500Z,1.97
2018-07-04T09:32:05.689Z,1.43
2018-07-04T09:34:52.785Z,1.30
2018-07-04T09:37:39.901Z,1.87
2018-07-04T09:40:27.115Z,64.87
2018-07-04T09:43:14.573Z,904.92
2018-07-04T09:46:02.058Z,760.23
2018-07-04T09:48:49.604Z,487.52
2018-07-04T09:51:36.989Z,1999.90
2018-07-04T09:54:24.417Z,62.70
2018-07-04T09:57:11.719Z,51.23
2018-07-04T09:59:59.065Z,136.35
2018-07-04T10:02:46.472Z,39.75
2018-07-04T10:05:33.874Z,53.30
2018-07-04T10:08:21.461Z,134.93
2018-07-04T10:11:08.815Z,58.67
2018-07-04T10:13:56.434Z,91.37
2018-07-04T10:16:43.945Z,162.55
2018-07-04T10:19:31.423Z,67.35
2018-07-04T10:22:18.812Z,761.40
2018-07-04T10:25:06.326Z,49.85
2018-07-04T10:27:53.733Z,40.15
2018-07-04T10:30:41.169Z,53.80
2018-07-04T10:33:28.469Z,40.78
2018-07-04T10:36:15.886Z,47.83
2018-07-04T10:39:03.516Z,42.17
2018-07-04T10:41:51.076Z,57.38
2018-07-04T10:44:38.449Z,51.50
2018-07-04T10:47:25.883Z,52.13
2018-07-04T10:50:13.289Z,43.50
2018-07-04T10:53:00.602Z,44.00
2018-07-04T10:55:47.933Z,34.23
2018-07-04T10:58:35.180Z,53.68
2018-07-04T11:01:22.560Z,57.80
2018-07-04T11:04:09.996Z,58.63
2018-07-04T11:06:57.354Z,53.68
2018-07-04T11:09:44.712Z,50.28
2018-07-04T11:12:32.328Z,52.05
2018-07-04T11:15:19.916Z,52.40
2018-07-04T11:18:07.441Z,44.90
2018-07-04T11:20:54.862Z,63.50
2018-07-04T11:23:42.352Z,45.45
2018-07-04T11:26:29.736Z,42.17
2018-07-04T11:29:17.152Z,72.50
2018-07-04T11:32:04.871Z,56.98
2018-07-04T11:34:52.379Z,45.85
2018-07-04T11:37:39.941Z,45.43
2018-07-04T11:40:27.354Z,66.90
2018-07-04T11:43:14.730Z,53.50
2018-07-04T11:45:58.231Z,68.83
2018-07-04T11:48:27.353Z,53.50
2018-07-04T11:50:56.489Z,47.45
2018-07-04T11:53:25.368Z,52.98
2018-07-04T11:55:54.202Z,44.70
2018-07-04T11:58:23.028Z,49.42
2018-07-04T12:00:51.873Z,49.83
2018-07-04T12:03:22.102Z,245.70
2018-07-04T12:06:03.780Z,50.23
2018-07-04T12:11:14.061Z,40.58
2018-07-04T12:13:43.154Z,38.05
2018-07-04T12:16:12.187Z,42.62
2018-07-04T12:18:41.049Z,41.33
2018-07-04T12:21:09.930Z,49.75
2018-07-04T12:23:38.840Z,42.80
2018-07-04T12:26:07.890Z,50.05
2018-07-04T12:28:36.974Z,52.90
2018-07-04T12:31:06.088Z,44.77
2018-07-04T12:33:35.077Z,43.98
2018-07-04T12:36:04.064Z,47.05
2018-07-04T12:38:32.893Z,49.83
2018-07-04T12:41:01.734Z,47.83
2018-07-04T12:43:30.697Z,40.95
2018-07-04T12:45:59.890Z,40.58
2018-07-04T12:48:28.717Z,40.70
2018-07-04T12:50:57.694Z,41.13
2018-07-04T12:53:26.904Z,45.28
2018-07-04T12:56:08.249Z,42.50
2018-07-04T12:58:55.850Z,41.30
2018-07-04T13:01:43.269Z,40.40
2018-07-04T13:04:30.747Z,38.08
2018-07-04T13:07:18.219Z,3.10
2018-07-04T13:10:05.499Z,2.10
2018-07-04T13:12:52.933Z,3.60
2018-07-04T13:15:40.425Z,2.85
2018-07-04T13:18:28.014Z,2.52
2018-07-04T13:21:15.369Z,2.45
2018-07-04T13:24:02.926Z,2.95
2018-07-04T13:26:50.509Z,1.98
2018-07-04T13:29:37.881Z,2.17
2018-07-04T13:32:25.315Z,3.95
2018-07-04T13:35:12.946Z,1.85
2018-07-04T13:38:00.631Z,1.52
2018-07-04T13:40:48.137Z,2.80
2018-07-04T13:43:35.617Z,2.58
2018-07-04T13:46:23.105Z,3.47
2018-07-04T13:49:10.471Z,4.08
2018-07-04T13:51:57.774Z,2.00
2018-07-04T13:54:45.106Z,2.75
2018-07-04T13:57:32.537Z,3.08
2018-07-04T14:00:19.940Z,3.95
2018-07-04T14:03:07.352Z,2.47
2018-07-04T14:05:54.644Z,2.40
2018-07-04T14:08:42.269Z,35.60
2018-07-04T14:11:29.705Z,35.50
2018-07-04T14:14:17.101Z,38.15
2018-07-04T14:17:04.334Z,38.73
2018-07-04T14:19:51.883Z,38.05
2018-07-04T14:22:39.161Z,30.77
2018-07-04T14:25:26.546Z,37.17
2018-07-04T14:28:14.179Z,40.48
2018-07-04T14:31:01.913Z,38.85
2018-07-04T14:33:49.421Z,37.08
2018-07-04T14:36:36.774Z,37.17
2018-07-04T14:39:24.204Z,39.55
2018-07-04T14:42:11.609Z,37.78
2018-07-04T14:44:59.016Z,46.83
2018-07-04T14:47:46.599Z,38.75
2018-07-04T14:50:34.081Z,40.20
2018-07-04T14:53:21.494Z,40.03
2018-07-04T14:56:09.212Z,38.70
2018-07-04T14:58:56.939Z,35.73
2018-07-04T15:01:44.561Z,38.65
2018-07-04T15:04:32.006Z,41.45
2018-07-04T15:07:19.400Z,41.23
2018-07-04T15:10:06.849Z,37.85
2018-07-04T15:12:54.262Z,40.85
2018-07-04T15:15:41.609Z,38.70
2018-07-04T15:18:29.084Z,48.38
2018-07-04T15:21:16.590Z,35.80
2018-07-04T15:24:04.007Z,39.83
2018-07-04T15:26:51.436Z,39.55
2018-07-04T15:29:38.985Z,39.65
2018-07-04T15:32:26.388Z,42.23
2018-07-04T15:35:13.781Z,41.18
2018-07-04T15:38:01.165Z,41.48
2018-07-04T15:40:48.569Z,37.93
2018-07-04T15:43:35.969Z,41.73
2018-07-04T15:46:23.390Z,41.13
2018-07-04T15:49:14.821Z,40.12
2018-07-04T15:52:02.321Z,37.13
2018-07-04T15:54:49.601Z,38.60
2018-07-04T15:57:36.926Z,40.00
2018-07-04T16:00:24.468Z,38.17
2018-07-04T16:03:11.989Z,38.33
2018-07-04T16:05:59.478Z,38.08
2018-07-04T16:08:46.998Z,38.35
2018-07-04T16:11:34.413Z,39.30
2018-07-04T16:14:22.037Z,36.83
2018-07-04T16:17:09.353Z,39.05
2018-07-04T16:19:56.665Z,37.73
2018-07-04T16:22:44.185Z,41.55
2018-07-04T16:25:31.609Z,40.23
2018-07-04T16:28:19.131Z,42.13
2018-07-04T16:31:06.593Z,37.98
2018-07-04T16:33:54.201Z,38.40
2018-07-04T16:36:41.527Z,40.10
2018-07-04T16:39:28.961Z,38.45
2018-07-04T16:42:16.373Z,38.63
2018-07-04T16:45:03.750Z,41.15
2018-07-04T16:47:51.216Z,39.50
2018-07-04T16:50:38.677Z,39.55
2018-07-04T16:53:26.339Z,40.05
2018-07-04T16:56:13.725Z,40.83
2018-07-04T16:59:01.255Z,39.48
2018-07-04T17:01:48.620Z,34.92
2018-07-04T17:04:36.029Z,39.00
2018-07-04T17:07:23.327Z,46.75
2018-07-04T17:10:10.529Z,36.65
2018-07-04T17:12:57.936Z,45.45
2018-07-04T17:15:45.436Z,41.05
2018-07-04T17:18:33.197Z,32.15
2018-07-04T17:21:20.584Z,38.33
2018-07-04T17:24:07.906Z,39.03
2018-07-04T17:26:55.220Z,38.33
2018-07-04T17:29:42.847Z,39.73
2018-07-04T17:32:30.443Z,36.23
2018-07-04T17:35:18.096Z,41.75
2018-07-04T17:38:05.509Z,42.08
2018-07-04T17:40:52.921Z,40.63
2018-07-04T17:43:40.254Z,39.88
2018-07-04T17:46:27.690Z,40.28
2018-07-04T17:49:15.046Z,39.48
2018-07-04T17:52:02.410Z,38.98
2018-07-04T17:54:49.841Z,38.78
2018-07-04T17:57:37.234Z,41.08
2018-07-04T18:00:24.765Z,39.67
2018-07-04T18:03:12.126Z,34.13
2018-07-04T18:05:59.602Z,40.50
2018-07-04T18:08:47.013Z,39.23
2018-07-04T18:11:34.534Z,38.15
2018-07-04T18:14:21.981Z,40.30
2018-07-04T18:17:09.493Z,40.90
2018-07-04T18:19:56.815Z,38.20
2018-07-04T18:22:44.189Z,34.03
2018-07-04T18:25:31.465Z,31.42
2018-07-04T18:28:18.705Z,19.05
2018-07-04T18:31:06.011Z,4.12
2018-07-04T18:33:53.554Z,3.30
2018-07-04T18:36:40.875Z,4.62
2018-07-04T18:39:28.223Z,5.92
2018-07-04T18:42:15.551Z,3.67
2018-07-04T18:45:03.101Z,4.75
2018-07-04T18:47:50.457Z,4.60
2018-07-04T18:50:37.970Z,4.72
2018-07-04T18:53:26.242Z,9.93
2018-07-04T18:56:13.597Z,6.87
2018-07-04T18:59:01.049Z,8.23
2018-07-04T19:01:48.465Z,8.18
2018-07-04T19:04:35.872Z,19.77
2018-07-04T19:07:23.206Z,16.80
2018-07-04T19:10:10.672Z,13.65
2018-07-04T19:12:57.991Z,32.17
2018-07-04T19:15:45.464Z,20.70
2018-07-04T19:18:32.993Z,16.80
2018-07-04T19:21:20.413Z,10.28
2018-07-04T19:24:07.773Z,10.65
2018-07-04T19:26:55.122Z,11.90
2018-07-04T19:29:42.604Z,11.08
2018-07-04T19:32:30.008Z,12.28
2018-07-04T19:35:17.537Z,14.28
2018-07-04T19:38:04.944Z,12.13
2018-07-04T19:40:52.417Z,16.73
2018-07-04T19:43:39.841Z,17.75
2018-07-04T19:46:27.412Z,15.58
2018-07-04T19:49:14.896Z,12.73
2018-07-04T19:52:02.355Z,12.75
2018-07-04T19:54:49.920Z,12.47
2018-07-04T19:57:37.234Z,15.28
2018-07-04T20:00:24.594Z,14.95
2018-07-04T20:03:11.920Z,16.57
2018-07-04T20:05:59.461Z,18.60
2018-07-04T20:08:46.773Z,19.70
2018-07-04T20:11:34.129Z,51.98
2018-07-04T20:14:21.629Z,53.35
2018-07-04T20:17:09.206Z,41.98
2018-07-04T20:19:56.820Z,34.58
2018-07-04T20:22:44.206Z,42.50
2018-07-04T20:25:31.718Z,43.42
2018-07-04T20:28:19.173Z,39.50
2018-07-04T20:31:06.602Z,42.27
2018-07-04T20:33:54.074Z,40.83
2018-07-04T20:36:41.514Z,39.73
2018-07-04T20:39:29.062Z,39.58
2018-07-04T20:42:16.030Z,36.13
2018-07-04T20:45:03.442Z,34.10
2018-07-04T20:47:50.762Z,31.60
2018-07-04T20:50:38.388Z,34.98
2018-07-04T20:53:25.871Z,30.77
2018-07-04T20:56:13.738Z,29.77
2018-07-04T20:59:00.560Z,27.43
2018-07-04T21:01:47.432Z,34.20
2018-07-04T21:04:34.332Z,27.50
2018-07-04T21:07:21.281Z,26.23
2018-07-04T21:10:08.204Z,24.37
2018-07-04T21:12:55.015Z,24.23
2018-07-04T21:15:41.702Z,23.13
2018-07-04T21:18:28.385Z,23.23
2018-07-04T21:21:15.442Z,26.43
2018-07-04T21:24:02.461Z,25.67
2018-07-04T21:26:49.505Z,22.80
2018-07-04T21:29:36.678Z,22.57
2018-07-04T21:32:24.028Z,16.93
2018-07-04T21:35:10.990Z,18.37
2018-07-04T21:37:58.607Z,17.30
2018-07-04T21:40:45.469Z,17.07
2018-07-04T21:43:32.368Z,15.53
2018-07-04T21:46:19.500Z,16.93
2018-07-04T21:49:06.876Z,14.53
2018-07-04T21:51:53.889Z,13.27
2018-07-04T21:54:40.873Z,11.17
2018-07-04T21:57:28.733Z,12.53
2018-07-04T22:00:19.509Z,15.00
2018-07-04T22:03:06.279Z,11.53
2018-07-04T22:05:53.230Z,15.83
2018-07-04T22:08:40.134Z,21.83
2018-07-04T22:11:26.934Z,14.37
2018-07-04T22:14:14.104Z,10.87
2018-07-04T22:17:01.121Z,13.33
2018-07-04T22:19:48.004Z,14.00
2018-07-04T22:22:35.384Z,15.40
2018-07-04T22:25:22.494Z,11.00
2018-07-04T22:28:09.671Z,13.53
2018-07-04T22:30:56.972Z,13.33
2018-07-04T22:33:43.839Z,12.53
2018-07-04T22:36:30.891Z,17.20
2018-07-04T22:39:17.708Z,12.40
2018-07-04T22:42:04.563Z,13.70
2018-07-04T22:44:51.486Z,14.73
2018-07-04T22:47:38.442Z,14.23
2018-07-04T22:50:25.155Z,10.67
2018-07-04T22:53:11.950Z,9.43
2018-07-04T22:55:58.729Z,9.23
2018-07-04T22:58:45.735Z,9.47
2018-07-04T23:01:32.928Z,8.43
2018-07-04T23:04:19.678Z,11.17
2018-07-04T23:07:06.592Z,8.47
2018-07-04T23:09:53.647Z,8.50
2018-07-04T23:12:40.797Z,8.83
2018-07-04T23:15:27.665Z,7.83
2018-07-04T23:18:14.529Z,5.33
2018-07-04T23:21:01.376Z,6.40
2018-07-04T23:23:48.714Z,7.37
2018-07-04T23:26:35.686Z,7.83
2018-07-04T23:29:22.405Z,7.07
2018-07-04T23:32:09.562Z,9.17
2018-07-04T23:34:56.656Z,9.47
2018-07-04T23:37:43.775Z,8.27
2018-07-04T23:40:30.530Z,6.27
2018-07-04T23:43:17.396Z,8.10
2018-07-04T23:46:04.333Z,7.10
2018-07-04T23:48:51.056Z,6.50
2018-07-04T23:51:37.832Z,5.90
2018-07-04T23:54:24.607Z,6.77
2018-07-04T23:57:11.450Z,6.07
2018-07-04T23:59:58.248Z,6.53
